createdAt,value
2023-03-04T00:03:27.260Z,-0.40
2023-03-04T00:10:48.694Z,-0.40
2023-03-04T00:13:16.943Z,-0.40
2023-03-04T00:15:43.832Z,-0.30
2023-03-04T00:23:05.038Z,-0.50
2023-03-04T00:27:59.478Z,-0.60
2023-03-04T00:30:26.366Z,-0.80
2023-03-04T00:40:15.646Z,-0.50
2023-03-04T00:45:10.379Z,-0.50
2023-03-04T00:50:04.876Z,-0.50
2023-03-04T00:54:59.104Z,-0.60
2023-03-04T01:02:20.482Z,-0.60
2023-03-04T01:04:47.580Z,-0.60
2023-03-04T01:07:14.484Z,-0.50
2023-03-04T01:12:08.715Z,-0.60
2023-03-04T01:19:30.205Z,-0.70
2023-03-04T01:24:24.209Z,-0.60
2023-03-04T01:26:51.089Z,-0.50
2023-03-04T01:36:40.037Z,-0.70
2023-03-04T01:39:06.936Z,-0.40
2023-03-04T01:41:33.876Z,-0.20
2023-03-04T01:44:02.521Z,-0.50
2023-03-04T01:46:30.849Z,-0.30
2023-03-04T01:48:58.808Z,-0.50
2023-03-04T01:56:29.631Z,-0.70
2023-03-04T01:59:16.615Z,-0.60
2023-03-04T02:01:48.866Z,-0.60
2023-03-04T02:04:17.749Z,-0.60
2023-03-04T02:06:46.174Z,-0.70
2023-03-04T02:09:13.655Z,-0.70
2023-03-04T02:14:08.368Z,-0.60
2023-03-04T02:19:05.323Z,-0.60
2023-03-04T02:21:34.100Z,-0.60
2023-03-04T02:24:19.886Z,-0.70
2023-03-04T02:29:16.282Z,-0.70
2023-03-04T02:31:48.912Z,-0.60
2023-03-04T02:34:19.047Z,-2.00
2023-03-04T02:36:47.916Z,0.30
2023-03-04T02:39:20.797Z,-0.60
2023-03-04T02:41:53.368Z,-0.50
2023-03-04T02:44:28.880Z,-0.50
2023-03-04T02:46:56.880Z,-0.60
2023-03-04T02:49:25.686Z,-0.60
2023-03-04T02:51:58.406Z,-0.60
2023-03-04T02:56:54.742Z,-0.60
2023-03-04T02:59:23.104Z,-0.60
2023-03-04T03:01:50.422Z,-0.30
2023-03-04T03:04:18.565Z,-0.60
2023-03-04T03:06:45.648Z,-0.50
2023-03-04T03:09:12.868Z,-0.60
2023-03-04T03:14:07.437Z,-0.60
2023-03-04T03:16:34.502Z,-0.40
2023-03-04T03:19:01.627Z,-0.50
2023-03-04T03:23:55.760Z,-0.50
2023-03-04T03:31:17.210Z,-0.50
2023-03-04T03:33:44.022Z,-0.50
2023-03-04T03:41:05.628Z,-0.50
2023-03-04T03:48:27.120Z,-0.40
2023-03-04T03:50:53.947Z,-0.50
2023-03-04T03:55:48.017Z,-0.40
2023-03-04T03:58:15.015Z,-0.60
2023-03-04T04:00:41.824Z,-0.40
2023-03-04T04:05:36.647Z,-0.50
2023-03-04T04:08:03.568Z,-0.40
2023-03-04T04:10:30.367Z,-0.60
2023-03-04T04:17:51.646Z,-0.30
2023-03-04T04:25:13.024Z,-0.30
2023-03-04T04:30:08.309Z,-0.40
2023-03-04T04:32:35.156Z,-0.30
2023-03-04T04:35:02.234Z,-0.40
2023-03-04T04:39:56.365Z,-0.30
2023-03-04T04:42:23.699Z,-0.40
2023-03-04T04:47:18.817Z,-0.30
2023-03-04T04:52:12.886Z,-0.30
2023-03-04T04:59:34.132Z,-0.20
2023-03-04T05:02:00.959Z,0.10
2023-03-04T05:19:11.908Z,-0.20
2023-03-04T05:31:27.992Z,0.00
2023-03-04T05:36:22.557Z,0.00
2023-03-04T05:46:19.305Z,0.00
2023-03-04T05:48:46.364Z,0.00
2023-03-04T05:51:13.207Z,-0.10
2023-03-04T05:53:41.629Z,0.00
2023-03-04T05:56:10.645Z,-0.10
2023-03-04T05:58:37.569Z,0.10
2023-03-04T06:01:06.190Z,0.40
2023-03-04T06:08:27.948Z,0.00
2023-03-04T06:10:56.570Z,0.10
2023-03-04T06:15:55.361Z,0.00
2023-03-04T06:23:18.359Z,0.10
2023-03-04T06:25:45.182Z,0.20
2023-03-04T06:28:11.993Z,0.20
2023-03-04T06:30:38.784Z,0.10
2023-03-04T06:33:05.599Z,0.10
2023-03-04T06:35:32.531Z,0.10
2023-03-04T06:42:53.853Z,0.20
2023-03-04T06:47:48.048Z,0.20
2023-03-04T06:50:15.134Z,0.00
2023-03-04T06:55:10.082Z,0.30
2023-03-04T06:57:36.967Z,0.30
2023-03-04T07:00:04.509Z,0.30
2023-03-04T07:04:58.726Z,1.20
2023-03-04T07:07:26.370Z,0.30
2023-03-04T07:14:47.685Z,0.30
2023-03-04T07:22:09.068Z,0.40
2023-03-04T07:36:52.780Z,0.50
2023-03-04T07:49:08.868Z,0.60
2023-03-04T07:54:03.433Z,0.60
2023-03-04T07:56:32.955Z,0.50
2023-03-04T07:59:01.209Z,1.40
2023-03-04T08:01:38.409Z,0.60
2023-03-04T08:04:06.665Z,0.60
2023-03-04T08:09:06.905Z,0.60
2023-03-04T08:11:35.749Z,0.50
2023-03-04T08:14:02.991Z,0.60
2023-03-04T08:18:59.664Z,0.30
2023-03-04T08:21:27.741Z,0.60
2023-03-04T08:23:57.769Z,0.50
2023-03-04T08:26:28.012Z,0.60
2023-03-04T08:28:56.572Z,0.60
2023-03-04T08:33:52.710Z,0.60
2023-03-04T08:36:20.801Z,0.70
2023-03-04T08:41:15.617Z,0.70
2023-03-04T08:43:43.282Z,0.60
2023-03-04T08:48:38.282Z,0.60
2023-03-04T08:51:10.743Z,0.70
2023-03-04T08:53:38.288Z,0.70
2023-03-04T08:56:06.101Z,0.70
2023-03-04T08:58:33.319Z,0.70
2023-03-04T09:01:01.061Z,0.70
2023-03-04T09:03:28.463Z,0.70
2023-03-04T09:05:55.573Z,0.80
2023-03-04T09:08:22.735Z,0.40
2023-03-04T09:10:53.785Z,0.70
2023-03-04T09:15:50.308Z,0.70
2023-03-04T09:18:18.513Z,0.70
2023-03-04T09:20:45.550Z,0.80
2023-03-04T09:23:12.990Z,0.90
2023-03-04T09:25:40.678Z,0.80
2023-03-04T09:28:08.032Z,0.60
2023-03-04T09:30:35.455Z,0.80
2023-03-04T09:33:02.515Z,0.80
2023-03-04T09:35:30.170Z,0.80
2023-03-04T09:37:58.202Z,0.90
2023-03-04T09:40:30.563Z,0.80
2023-03-04T09:43:06.002Z,0.80
2023-03-04T09:45:46.154Z,0.90
2023-03-04T09:48:24.683Z,0.90
2023-03-04T09:51:32.667Z,0.90
2023-03-04T09:54:15.010Z,0.90
2023-03-04T09:56:42.457Z,0.90
2023-03-04T09:59:29.943Z,0.90
2023-03-04T10:02:01.992Z,0.90
2023-03-04T10:04:43.103Z,1.00
2023-03-04T10:07:18.848Z,0.90
2023-03-04T10:12:15.787Z,0.90
2023-03-04T10:14:54.137Z,1.00
2023-03-04T10:17:37.056Z,1.00
2023-03-04T10:20:23.766Z,1.00
2023-03-04T10:22:59.925Z,0.90
2023-03-04T10:25:31.926Z,1.00
2023-03-04T10:28:06.980Z,1.00
2023-03-04T10:31:11.036Z,1.00
2023-03-04T10:33:40.636Z,0.90
2023-03-04T10:36:26.024Z,0.80
2023-03-04T10:39:11.343Z,1.00
2023-03-04T10:41:43.994Z,0.90
2023-03-04T10:46:43.908Z,1.00
2023-03-04T10:49:11.688Z,0.90
2023-03-04T10:52:15.423Z,1.00
2023-03-04T10:54:46.710Z,1.00
2023-03-04T10:57:37.804Z,0.90
2023-03-04T11:00:36.880Z,0.90
2023-03-04T11:03:34.218Z,1.00
2023-03-04T11:06:23.458Z,1.00
2023-03-04T11:08:58.820Z,1.00
2023-03-04T11:11:37.730Z,1.00
2023-03-04T11:14:21.565Z,1.00
2023-03-04T11:17:03.613Z,1.10
2023-03-04T11:19:39.508Z,1.00
2023-03-04T11:24:37.040Z,1.20
2023-03-04T11:27:12.942Z,1.20
2023-03-04T11:30:04.697Z,1.20
2023-03-04T11:32:41.140Z,1.30
2023-03-04T11:35:25.713Z,1.30
2023-03-04T11:38:08.910Z,1.30
2023-03-04T11:40:45.840Z,1.20
2023-03-04T11:43:28.760Z,1.20
2023-03-04T11:46:29.067Z,1.30
2023-03-04T11:49:35.014Z,2.10
2023-03-04T11:52:20.374Z,1.30
2023-03-04T11:55:08.881Z,1.40
2023-03-04T11:58:02.884Z,1.30
2023-03-04T12:00:29.657Z,1.40
2023-03-04T12:03:33.125Z,1.40
2023-03-04T12:06:06.326Z,1.40
2023-03-04T12:08:33.062Z,1.40
2023-03-04T12:11:40.312Z,1.30
2023-03-04T12:14:28.260Z,1.30
2023-03-04T12:19:39.295Z,1.30
2023-03-04T12:22:28.602Z,1.30
2023-03-04T12:25:18.847Z,1.30
2023-03-04T12:28:03.967Z,1.50
2023-03-04T12:30:38.791Z,1.40
2023-03-04T12:33:30.789Z,1.40
2023-03-04T12:36:06.391Z,1.50
2023-03-04T12:38:59.266Z,1.50
2023-03-04T12:41:45.137Z,1.50
2023-03-04T12:44:19.555Z,1.60
2023-03-04T12:47:44.495Z,1.50
2023-03-04T12:52:47.880Z,1.50
2023-03-04T12:55:19.021Z,1.40
2023-03-04T12:57:50.307Z,1.50
2023-03-04T13:00:29.850Z,1.60
2023-03-04T13:03:24.150Z,1.60
2023-03-04T13:06:03.970Z,1.60
2023-03-04T13:08:50.389Z,1.60
2023-03-04T13:11:29.224Z,1.70
2023-03-04T13:14:17.269Z,1.70
2023-03-04T13:16:54.288Z,1.70
2023-03-04T13:19:58.674Z,1.70
2023-03-04T13:23:09.677Z,1.70
2023-03-04T13:25:39.226Z,1.70
2023-03-04T13:28:23.400Z,1.70
2023-03-04T13:30:55.754Z,1.60
2023-03-04T13:36:02.292Z,1.70
2023-03-04T13:41:31.223Z,1.90
2023-03-04T13:44:33.225Z,1.80
2023-03-04T13:47:15.792Z,1.80
2023-03-04T13:52:41.629Z,1.80
2023-03-04T13:55:33.515Z,1.80
2023-03-04T14:00:28.840Z,1.80
2023-03-04T14:10:25.195Z,1.90
2023-03-04T14:12:57.703Z,2.00
2023-03-04T14:15:28.045Z,2.00
2023-03-04T14:17:57.758Z,1.90
2023-03-04T14:20:39.881Z,1.90
2023-03-04T14:23:30.107Z,1.90
2023-03-04T14:26:15.625Z,1.90
2023-03-04T14:28:48.117Z,1.90
2023-03-04T14:31:21.468Z,2.00
2023-03-04T14:33:57.285Z,2.00
2023-03-04T14:38:58.008Z,2.00
2023-03-04T14:41:52.035Z,2.00
2023-03-04T14:44:36.153Z,2.00
2023-03-04T14:47:13.746Z,1.90
2023-03-04T14:54:41.485Z,1.90
2023-03-04T14:57:23.830Z,1.90
2023-03-04T15:04:48.321Z,1.80
2023-03-04T15:07:36.012Z,1.80
2023-03-04T15:10:07.083Z,2.30
2023-03-04T15:12:37.965Z,1.80
2023-03-04T15:15:42.414Z,1.80
2023-03-04T15:18:26.433Z,1.80
2023-03-04T15:20:54.364Z,1.80
2023-03-04T15:25:53.504Z,1.80
2023-03-04T15:28:21.142Z,1.80
2023-03-04T15:35:58.313Z,1.90
2023-03-04T15:38:26.843Z,1.90
2023-03-04T15:43:23.102Z,2.00
2023-03-04T15:45:51.194Z,1.80
2023-03-04T15:48:18.906Z,1.70
2023-03-04T15:50:50.533Z,1.70
2023-03-04T15:53:39.857Z,1.70
2023-03-04T15:56:13.063Z,1.50
2023-03-04T15:58:40.527Z,1.50
2023-03-04T16:01:07.510Z,1.10
2023-03-04T16:03:34.454Z,1.30
2023-03-04T16:06:01.397Z,1.00
2023-03-04T16:13:24.282Z,1.20
2023-03-04T16:15:51.890Z,0.90
2023-03-04T16:18:18.932Z,1.20
2023-03-04T16:20:48.295Z,1.20
2023-03-04T16:23:19.420Z,1.00
2023-03-04T16:25:48.156Z,1.30
2023-03-04T16:28:15.961Z,1.20
2023-03-04T16:35:39.695Z,1.20
2023-03-04T16:38:18.547Z,1.20
2023-03-04T16:43:14.220Z,1.10
2023-03-04T16:45:41.567Z,1.00
2023-03-04T16:50:37.787Z,1.00
2023-03-04T16:53:05.846Z,1.10
2023-03-04T17:00:28.656Z,1.10
2023-03-04T17:03:00.980Z,0.90
2023-03-04T17:05:34.189Z,1.00
2023-03-04T17:08:00.995Z,1.00
2023-03-04T17:12:55.537Z,1.00
2023-03-04T17:15:22.441Z,1.00
2023-03-04T17:20:19.311Z,1.30
2023-03-04T17:25:14.620Z,0.80
2023-03-04T17:27:42.039Z,1.10
2023-03-04T17:30:11.694Z,1.10
2023-03-04T17:32:39.989Z,1.10
2023-03-04T17:35:08.375Z,1.10
2023-03-04T17:37:36.168Z,1.10
2023-03-04T17:40:05.933Z,1.10
2023-03-04T17:42:33.125Z,0.90
2023-03-04T17:47:27.214Z,0.90
2023-03-04T17:52:22.078Z,0.90
2023-03-04T17:59:43.483Z,0.80
2023-03-04T18:02:15.068Z,0.70
2023-03-04T18:09:36.900Z,0.70
2023-03-04T18:26:47.579Z,0.50
2023-03-04T18:34:09.968Z,0.10
2023-03-04T18:36:37.394Z,0.30
2023-03-04T18:39:07.308Z,0.00
2023-03-04T18:41:34.343Z,0.10
2023-03-04T18:46:37.796Z,0.00
2023-03-04T18:49:08.761Z,0.00
2023-03-04T18:54:02.865Z,-0.20
2023-03-04T18:56:44.176Z,-0.40
2023-03-04T18:59:26.784Z,-0.50
2023-03-04T19:01:55.301Z,-0.40
2023-03-04T19:04:26.387Z,-0.50
2023-03-04T19:06:53.557Z,-0.60
2023-03-04T19:14:15.085Z,-0.70
2023-03-04T19:19:09.256Z,-0.60
2023-03-04T19:21:40.211Z,-0.80
2023-03-04T19:24:07.386Z,-0.70
2023-03-04T19:26:34.582Z,-0.80
2023-03-04T19:29:01.504Z,-0.90
2023-03-04T19:31:28.515Z,-0.80
2023-03-04T19:33:55.334Z,-0.80
2023-03-04T19:36:22.180Z,-0.80
2023-03-04T19:41:17.533Z,-0.80
2023-03-04T19:43:46.065Z,-0.80
2023-03-04T19:46:13.878Z,-1.00
2023-03-04T19:48:41.181Z,-1.00
2023-03-04T19:51:23.768Z,-1.10
2023-03-04T19:53:50.927Z,-0.90
2023-03-04T20:01:28.015Z,-0.90
2023-03-04T20:03:57.013Z,-0.80
2023-03-04T20:08:51.556Z,-0.80
2023-03-04T20:11:18.542Z,-0.80
2023-03-04T20:16:13.909Z,-0.60
2023-03-04T20:18:42.396Z,-0.70
2023-03-04T20:21:09.785Z,-0.70
2023-03-04T20:23:36.661Z,-0.60
2023-03-04T20:26:04.877Z,-0.80
2023-03-04T20:31:25.277Z,-0.80
2023-03-04T20:33:53.562Z,-0.80
2023-03-04T20:36:22.464Z,-0.80
2023-03-04T20:38:51.256Z,-0.90
2023-03-04T20:41:23.953Z,-0.90
2023-03-04T20:46:29.460Z,-1.00
2023-03-04T20:49:02.000Z,-1.00
2023-03-04T20:51:30.707Z,-1.10
2023-03-04T20:53:58.608Z,-1.10
2023-03-04T20:56:26.484Z,-1.10
2023-03-04T20:58:54.324Z,-1.10
2023-03-04T21:01:22.261Z,-1.20
2023-03-04T21:03:50.066Z,-1.20
2023-03-04T21:08:44.378Z,-1.20
2023-03-04T21:11:15.894Z,-1.20
2023-03-04T21:13:43.540Z,-1.30
2023-03-04T21:16:15.858Z,-1.20
2023-03-04T21:18:44.489Z,-1.20
2023-03-04T21:21:13.545Z,-1.30
2023-03-04T21:33:34.884Z,-1.30
2023-03-04T21:43:23.911Z,-1.40
2023-03-04T21:45:58.084Z,-1.40
2023-03-04T21:48:25.904Z,-1.60
2023-03-04T21:50:54.283Z,-1.50
2023-03-04T21:55:49.865Z,-1.70
2023-03-04T21:58:17.324Z,-1.70
2023-03-04T22:00:44.809Z,-1.80
2023-03-04T22:03:11.783Z,-1.90
2023-03-04T22:05:45.382Z,-1.80
2023-03-04T22:08:13.636Z,-1.80
2023-03-04T22:13:11.200Z,-2.00
2023-03-04T22:18:07.596Z,-2.10
2023-03-04T22:20:39.282Z,-2.00
2023-03-04T22:25:39.132Z,-2.10
2023-03-04T22:28:06.760Z,-2.40
2023-03-04T22:30:35.294Z,-2.30
2023-03-04T22:33:03.280Z,-2.40
2023-03-04T22:35:30.346Z,-2.40
2023-03-04T22:37:57.415Z,-2.40
2023-03-04T22:47:51.626Z,-2.50
2023-03-04T22:50:20.175Z,-2.50
2023-03-04T22:52:47.724Z,-2.60
2023-03-04T22:55:19.489Z,-2.60
2023-03-04T22:57:46.732Z,-2.60
2023-03-04T23:00:24.043Z,-2.60
2023-03-04T23:02:51.670Z,-2.60
2023-03-04T23:05:22.289Z,-2.60
2023-03-04T23:07:51.294Z,-2.60
2023-03-04T23:10:21.728Z,-2.70
2023-03-04T23:15:18.363Z,-2.70
2023-03-04T23:17:46.316Z,-2.70
2023-03-04T23:20:19.371Z,-2.70
2023-03-04T23:22:48.024Z,-2.70
2023-03-04T23:25:16.024Z,-2.80
2023-03-04T23:27:43.985Z,-2.80
2023-03-04T23:30:15.029Z,-2.80
2023-03-04T23:32:42.540Z,-2.80
2023-03-04T23:35:09.542Z,-2.70
2023-03-04T23:40:04.225Z,-2.80
2023-03-04T23:42:31.148Z,-2.80
2023-03-04T23:47:25.188Z,-3.00
2023-03-04T23:49:52.925Z,-2.90
2023-03-04T23:52:19.741Z,-2.80
2023-03-04T23:57:13.865Z,-2.80
